createdAt,value
2023-03-02T00:01:31.307Z,99.90
2023-03-02T00:04:00.838Z,99.90
2023-03-02T00:06:31.120Z,99.90
2023-03-02T00:09:03.217Z,99.90
2023-03-02T00:11:30.809Z,99.90
2023-03-02T00:13:58.332Z,99.90
2023-03-02T00:16:25.793Z,99.90
2023-03-02T00:18:53.056Z,99.90
2023-03-02T00:21:20.386Z,99.90
2023-03-02T00:23:47.622Z,99.90
2023-03-02T00:26:14.901Z,99.90
2023-03-02T00:28:42.181Z,99.90
2023-03-02T00:31:09.576Z,99.90
2023-03-02T00:33:36.850Z,99.90
2023-03-02T00:36:04.373Z,99.90
2023-03-02T00:38:31.722Z,99.90
2023-03-02T00:40:59.511Z,99.90
2023-03-02T00:43:28.215Z,99.90
2023-03-02T00:45:55.657Z,99.90
2023-03-02T00:48:23.375Z,99.90
2023-03-02T00:50:50.775Z,99.90
2023-03-02T00:53:18.216Z,99.90
2023-03-02T00:55:54.543Z,99.90
2023-03-02T00:58:23.398Z,99.90
2023-03-02T01:00:50.925Z,99.90
2023-03-02T01:03:19.237Z,99.90
2023-03-02T01:05:47.820Z,99.90
2023-03-02T01:08:15.317Z,99.90
2023-03-02T01:10:42.574Z,99.90
2023-03-02T01:13:09.766Z,99.90
2023-03-02T01:15:38.159Z,99.90
2023-03-02T01:18:05.779Z,99.90
2023-03-02T01:20:33.118Z,99.90
2023-03-02T01:23:00.413Z,99.90
2023-03-02T01:25:27.713Z,99.90
2023-03-02T01:27:55.480Z,99.90
2023-03-02T01:30:22.750Z,99.90
2023-03-02T01:32:49.998Z,99.90
2023-03-02T01:35:17.282Z,99.90
2023-03-02T01:37:44.487Z,99.90
2023-03-02T01:40:14.602Z,99.90
2023-03-02T01:42:50.995Z,99.90
2023-03-02T01:45:54.002Z,99.90
2023-03-02T01:49:04.691Z,99.90
2023-03-02T01:51:52.662Z,99.90
2023-03-02T01:54:25.331Z,99.90
2023-03-02T01:57:04.019Z,99.90
2023-03-02T01:59:33.068Z,99.90
2023-03-02T02:02:02.959Z,99.90
2023-03-02T02:04:31.449Z,99.90
2023-03-02T02:07:03.751Z,99.90
2023-03-02T02:09:36.694Z,99.90
2023-03-02T02:12:05.922Z,99.90
2023-03-02T02:14:34.490Z,99.90
2023-03-02T02:17:02.235Z,99.90
2023-03-02T02:19:55.613Z,99.90
2023-03-02T02:22:32.751Z,99.90
2023-03-02T02:25:04.136Z,99.90
2023-03-02T02:27:34.158Z,99.90
2023-03-02T02:30:05.261Z,99.90
2023-03-02T02:32:36.489Z,99.90
2023-03-02T02:35:20.228Z,99.90
2023-03-02T02:37:58.981Z,99.90
2023-03-02T02:40:53.986Z,99.90
2023-03-02T02:43:26.518Z,99.90
2023-03-02T02:45:56.890Z,99.90
2023-03-02T02:48:31.058Z,99.90
2023-03-02T02:51:03.384Z,99.90
2023-03-02T02:53:49.793Z,99.90
2023-03-02T02:56:18.764Z,99.90
2023-03-02T02:58:52.080Z,99.90
2023-03-02T03:01:26.159Z,99.90
2023-03-02T03:04:02.744Z,99.90
2023-03-02T03:06:38.636Z,99.90
2023-03-02T03:09:07.431Z,99.90
2023-03-02T03:11:42.446Z,99.90
2023-03-02T03:14:28.139Z,99.90
2023-03-02T03:16:56.097Z,99.90
2023-03-02T03:19:25.356Z,99.90
2023-03-02T03:21:59.611Z,99.90
2023-03-02T03:24:31.897Z,99.90
2023-03-02T03:27:00.597Z,99.90
2023-03-02T03:29:29.518Z,99.90
2023-03-02T03:32:00.609Z,99.90
2023-03-02T03:34:29.319Z,99.90
2023-03-02T03:37:01.936Z,99.90
2023-03-02T03:39:33.675Z,99.90
2023-03-02T03:42:01.239Z,99.90
2023-03-02T03:44:29.028Z,99.90
2023-03-02T03:46:56.441Z,99.90
2023-03-02T03:49:24.410Z,99.90
2023-03-02T03:51:51.827Z,99.90
2023-03-02T03:54:19.593Z,99.90
2023-03-02T03:56:49.328Z,99.90
2023-03-02T03:59:20.692Z,99.90
2023-03-02T04:01:58.640Z,99.90
2023-03-02T04:04:32.514Z,99.90
2023-03-02T04:07:00.948Z,99.90
2023-03-02T04:09:32.316Z,99.90
2023-03-02T04:12:00.021Z,99.90
2023-03-02T04:14:28.067Z,99.90
2023-03-02T04:16:56.648Z,99.90
2023-03-02T04:19:25.151Z,99.90
2023-03-02T04:21:56.168Z,99.90
2023-03-02T04:24:24.943Z,99.90
2023-03-02T04:26:55.250Z,99.90
2023-03-02T04:29:23.431Z,99.90
2023-03-02T04:31:51.466Z,99.90
2023-03-02T04:34:20.231Z,99.90
2023-03-02T04:36:48.294Z,99.90
2023-03-02T04:39:16.801Z,99.90
2023-03-02T04:41:48.142Z,99.90
2023-03-02T04:44:16.715Z,99.90
2023-03-02T04:46:44.963Z,99.90
2023-03-02T04:49:13.949Z,99.90
2023-03-02T04:51:43.315Z,99.90
2023-03-02T04:54:22.970Z,99.90
2023-03-02T04:56:51.762Z,99.90
2023-03-02T04:59:22.595Z,99.90
2023-03-02T05:01:50.491Z,99.90
2023-03-02T05:04:18.497Z,99.90
2023-03-02T05:06:46.251Z,99.90
2023-03-02T05:09:13.467Z,99.90
2023-03-02T05:11:41.283Z,99.90
2023-03-02T05:14:10.646Z,99.90
2023-03-02T05:16:40.510Z,99.90
2023-03-02T05:19:11.523Z,99.90
2023-03-02T05:21:39.490Z,99.90
2023-03-02T05:24:07.177Z,99.90
2023-03-02T05:26:34.791Z,99.90
2023-03-02T05:29:02.335Z,99.90
2023-03-02T05:31:36.657Z,99.90
2023-03-02T05:34:07.279Z,99.90
2023-03-02T05:36:35.096Z,99.90
2023-03-02T05:39:02.892Z,99.90
2023-03-02T05:41:30.133Z,99.90
2023-03-02T05:43:57.424Z,99.90
2023-03-02T05:46:24.928Z,99.90
2023-03-02T05:48:52.236Z,99.90
2023-03-02T05:51:19.658Z,99.90
2023-03-02T05:53:47.167Z,99.90
2023-03-02T05:56:14.327Z,99.90
2023-03-02T05:58:41.622Z,99.90
2023-03-02T06:01:14.770Z,99.90
2023-03-02T06:03:43.406Z,99.90
2023-03-02T06:06:14.341Z,99.90
2023-03-02T06:08:43.349Z,99.90
2023-03-02T06:11:11.368Z,99.90
2023-03-02T06:13:39.265Z,99.90
2023-03-02T06:16:06.864Z,99.90
2023-03-02T06:18:34.558Z,99.90
2023-03-02T06:21:02.033Z,99.90
2023-03-02T06:23:29.621Z,99.90
2023-03-02T06:25:58.328Z,99.90
2023-03-02T06:28:26.400Z,99.90
2023-03-02T06:30:54.055Z,99.90
2023-03-02T06:33:21.680Z,99.90
2023-03-02T06:35:49.442Z,99.90
2023-03-02T06:38:17.460Z,99.90
2023-03-02T06:40:45.145Z,99.90
2023-03-02T06:43:12.464Z,99.90
2023-03-02T06:45:40.109Z,99.90
2023-03-02T06:48:07.988Z,99.90
2023-03-02T06:50:35.636Z,99.90
2023-03-02T06:53:03.186Z,99.90
2023-03-02T06:55:30.439Z,99.90
2023-03-02T06:57:57.748Z,99.90
2023-03-02T07:00:27.347Z,99.90
2023-03-02T07:02:55.967Z,99.90
2023-03-02T07:05:24.549Z,99.90
2023-03-02T07:07:52.417Z,99.90
2023-03-02T07:10:19.885Z,99.90
2023-03-02T07:12:47.066Z,99.90
2023-03-02T07:15:14.652Z,99.90
2023-03-02T07:17:44.202Z,99.90
2023-03-02T07:20:17.278Z,99.90
2023-03-02T07:22:45.226Z,99.90
2023-03-02T07:25:12.643Z,99.90
2023-03-02T07:27:40.279Z,99.90
2023-03-02T07:30:09.131Z,99.90
2023-03-02T07:32:36.541Z,99.90
2023-03-02T07:35:04.304Z,99.90
2023-03-02T07:37:31.635Z,99.90
2023-03-02T07:40:00.717Z,99.90
2023-03-02T07:42:28.294Z,99.90
2023-03-02T07:44:58.303Z,99.90
2023-03-02T07:47:25.598Z,99.90
2023-03-02T07:49:52.810Z,99.90
2023-03-02T07:52:20.124Z,99.90
2023-03-02T07:54:47.414Z,99.90
2023-03-02T07:57:16.447Z,99.90
2023-03-02T07:59:43.949Z,99.90
2023-03-02T08:02:16.322Z,99.90
2023-03-02T08:04:43.633Z,99.90
2023-03-02T08:07:10.902Z,99.90
2023-03-02T08:09:41.319Z,99.90
2023-03-02T08:12:08.738Z,99.90
2023-03-02T08:14:36.152Z,99.90
2023-03-02T08:17:05.987Z,99.90
2023-03-02T08:19:33.817Z,99.90
2023-03-02T08:22:02.051Z,99.90
2023-03-02T08:24:29.493Z,99.90
2023-03-02T08:26:59.646Z,99.90
2023-03-02T08:29:26.919Z,99.90
2023-03-02T08:31:54.376Z,99.90
2023-03-02T08:34:21.835Z,99.90
2023-03-02T08:36:49.041Z,99.90
2023-03-02T08:39:16.259Z,99.90
2023-03-02T08:41:43.477Z,99.90
2023-03-02T08:44:10.796Z,99.90
2023-03-02T08:46:37.985Z,99.90
2023-03-02T08:49:05.193Z,99.90
2023-03-02T08:51:32.775Z,99.90
2023-03-02T08:54:00.553Z,99.90
2023-03-02T08:56:31.321Z,99.90
2023-03-02T08:59:05.132Z,99.90
2023-03-02T09:01:35.407Z,99.90
2023-03-02T09:04:04.596Z,99.90
2023-03-02T09:06:34.041Z,99.90
2023-03-02T09:09:01.299Z,99.90
2023-03-02T09:11:28.684Z,99.90
2023-03-02T09:13:56.417Z,99.90
2023-03-02T09:16:27.046Z,99.90
2023-03-02T09:18:54.985Z,99.90
2023-03-02T09:21:23.025Z,99.90
2023-03-02T09:23:53.891Z,99.90
2023-03-02T09:26:21.439Z,99.90
2023-03-02T09:28:48.787Z,99.90
2023-03-02T09:31:16.128Z,99.90
2023-03-02T09:33:43.448Z,99.90
2023-03-02T09:36:21.808Z,99.90
2023-03-02T09:38:49.081Z,99.90
2023-03-02T09:41:22.117Z,99.90
2023-03-02T09:44:13.823Z,99.90
2023-03-02T09:46:44.485Z,99.90
2023-03-02T09:49:20.621Z,99.90
2023-03-02T09:52:22.036Z,99.90
2023-03-02T09:54:49.366Z,99.90
2023-03-02T09:57:23.817Z,99.90
2023-03-02T09:59:59.872Z,99.90
2023-03-02T10:02:52.940Z,99.90
2023-03-02T10:05:38.536Z,99.90
2023-03-02T10:08:06.338Z,99.90
2023-03-02T10:10:44.057Z,99.90
2023-03-02T10:13:19.910Z,99.90
2023-03-02T10:15:53.022Z,99.90
2023-03-02T10:18:27.752Z,99.90
2023-03-02T10:21:06.937Z,99.90
2023-03-02T10:23:39.996Z,99.90
2023-03-02T10:26:26.281Z,99.90
2023-03-02T10:29:00.773Z,99.90
2023-03-02T10:31:34.058Z,99.90
2023-03-02T10:34:01.473Z,99.90
2023-03-02T10:36:31.396Z,99.90
2023-03-02T10:39:00.978Z,99.90
2023-03-02T10:41:41.593Z,99.90
2023-03-02T10:44:20.995Z,99.90
2023-03-02T10:46:48.466Z,99.90
2023-03-02T10:49:36.920Z,99.90
2023-03-02T10:52:18.989Z,99.90
2023-03-02T10:54:47.512Z,99.90
2023-03-02T10:57:39.555Z,99.90
2023-03-02T11:00:19.109Z,99.90
2023-03-02T11:03:03.991Z,99.90
2023-03-02T11:05:33.381Z,99.90
2023-03-02T11:08:06.531Z,99.90
2023-03-02T11:10:39.797Z,99.90
2023-03-02T11:13:37.257Z,99.90
2023-03-02T11:16:18.127Z,99.90
2023-03-02T11:18:52.637Z,99.90
2023-03-02T11:21:37.137Z,99.90
2023-03-02T11:24:26.972Z,99.90
2023-03-02T11:26:56.854Z,99.90
2023-03-02T11:29:43.985Z,99.90
2023-03-02T11:32:35.652Z,99.90
2023-03-02T11:35:22.659Z,99.90
2023-03-02T11:37:52.601Z,99.90
2023-03-02T11:40:35.957Z,99.90
2023-03-02T11:43:04.972Z,99.90
2023-03-02T11:45:38.038Z,99.90
2023-03-02T11:48:08.235Z,99.90
2023-03-02T11:50:49.106Z,99.90
2023-03-02T11:53:19.420Z,99.90
2023-03-02T11:55:50.806Z,99.60
2023-03-02T11:58:22.027Z,99.10
2023-03-02T12:00:50.214Z,98.30
2023-03-02T12:03:17.487Z,97.50
2023-03-02T12:05:51.737Z,96.30
2023-03-02T12:08:18.938Z,95.90
2023-03-02T12:11:16.568Z,96.00
2023-03-02T12:13:49.898Z,95.80
2023-03-02T12:16:24.343Z,95.00
2023-03-02T12:18:52.787Z,94.70
2023-03-02T12:21:24.465Z,94.30
2023-03-02T12:23:51.647Z,93.70
2023-03-02T12:26:24.943Z,93.70
2023-03-02T12:29:05.986Z,93.20
2023-03-02T12:31:47.102Z,92.90
2023-03-02T12:34:35.599Z,92.40
2023-03-02T12:37:15.060Z,92.00
2023-03-02T12:40:21.499Z,91.10
2023-03-02T12:43:09.746Z,90.00
2023-03-02T12:45:55.664Z,88.80
2023-03-02T12:48:41.318Z,86.90
2023-03-02T12:51:21.546Z,83.60
2023-03-02T12:53:50.588Z,80.40
2023-03-02T12:56:26.055Z,76.60
2023-03-02T12:58:54.667Z,76.30
2023-03-02T13:01:25.281Z,74.60
2023-03-02T13:03:53.692Z,71.80
2023-03-02T13:06:23.775Z,69.80
2023-03-02T13:08:54.922Z,68.10
2023-03-02T13:11:31.434Z,66.50
2023-03-02T13:14:00.692Z,64.70
2023-03-02T13:16:32.537Z,63.60
2023-03-02T13:19:03.221Z,61.50
2023-03-02T13:21:37.813Z,59.70
2023-03-02T13:24:20.732Z,59.10
2023-03-02T13:26:56.764Z,58.60
2023-03-02T13:29:27.819Z,58.10
2023-03-02T13:31:55.464Z,57.30
2023-03-02T13:34:32.787Z,57.40
2023-03-02T13:37:00.103Z,56.60
2023-03-02T13:39:30.804Z,54.90
2023-03-02T13:42:04.519Z,55.20
2023-03-02T13:44:34.570Z,55.50
2023-03-02T13:47:02.732Z,54.90
2023-03-02T13:49:37.455Z,54.80
2023-03-02T13:52:17.514Z,53.90
2023-03-02T13:54:47.314Z,53.40
2023-03-02T13:57:21.902Z,53.00
2023-03-02T13:59:49.444Z,53.00
2023-03-02T14:02:26.354Z,53.40
2023-03-02T14:04:54.258Z,52.50
2023-03-02T14:07:21.640Z,52.70
2023-03-02T14:09:49.503Z,51.40
2023-03-02T14:12:33.006Z,51.20
2023-03-02T14:15:03.376Z,51.90
2023-03-02T14:17:30.708Z,52.20
2023-03-02T14:19:57.988Z,52.20
2023-03-02T14:22:27.404Z,51.10
2023-03-02T14:24:54.637Z,51.10
2023-03-02T14:27:30.641Z,51.20
2023-03-02T14:29:58.835Z,50.60
2023-03-02T14:32:26.164Z,50.30
2023-03-02T14:34:53.429Z,50.00
2023-03-02T14:37:25.025Z,50.20
2023-03-02T14:39:55.584Z,49.60
2023-03-02T14:42:23.705Z,50.30
2023-03-02T14:44:51.989Z,49.80
2023-03-02T14:47:19.853Z,50.10
2023-03-02T14:49:49.001Z,50.80
2023-03-02T14:52:16.209Z,50.10
2023-03-02T14:54:56.002Z,49.70
2023-03-02T14:57:29.879Z,49.50
2023-03-02T15:00:00.076Z,49.50
2023-03-02T15:02:27.637Z,49.60
2023-03-02T15:04:57.428Z,49.60
2023-03-02T15:07:27.433Z,49.30
2023-03-02T15:09:58.847Z,48.50
2023-03-02T15:12:26.445Z,48.50
2023-03-02T15:14:53.853Z,48.70
2023-03-02T15:17:21.136Z,49.60
2023-03-02T15:19:48.474Z,49.80
2023-03-02T15:22:15.908Z,49.90
2023-03-02T15:24:43.130Z,49.30
2023-03-02T15:27:10.426Z,50.00
2023-03-02T15:29:37.622Z,49.80
2023-03-02T15:32:05.130Z,49.20
2023-03-02T15:34:32.429Z,49.20
2023-03-02T15:36:59.668Z,49.60
2023-03-02T15:39:26.927Z,50.20
2023-03-02T15:41:54.287Z,50.60
2023-03-02T15:44:25.261Z,51.10
2023-03-02T15:46:57.701Z,51.00
2023-03-02T15:49:28.366Z,50.80
2023-03-02T15:51:59.665Z,50.70
2023-03-02T15:54:28.360Z,50.70
2023-03-02T15:56:55.884Z,51.90
2023-03-02T15:59:28.714Z,51.80
2023-03-02T16:02:05.369Z,51.60
2023-03-02T16:04:33.883Z,51.60
2023-03-02T16:07:01.297Z,52.20
2023-03-02T16:09:29.203Z,52.80
2023-03-02T16:11:56.457Z,53.20
2023-03-02T16:14:24.218Z,54.10
2023-03-02T16:16:51.657Z,55.30
2023-03-02T16:19:19.861Z,55.80
2023-03-02T16:21:48.071Z,56.30
2023-03-02T16:24:17.187Z,57.60
2023-03-02T16:26:45.074Z,57.60
2023-03-02T16:29:13.860Z,58.20
2023-03-02T16:31:41.628Z,59.30
2023-03-02T16:34:10.392Z,60.60
2023-03-02T16:36:39.868Z,61.40
2023-03-02T16:39:08.525Z,63.10
2023-03-02T16:41:40.872Z,64.60
2023-03-02T16:44:09.161Z,66.00
2023-03-02T16:46:39.446Z,67.20
2023-03-02T16:49:07.128Z,68.70
2023-03-02T16:51:34.521Z,70.70
2023-03-02T16:54:02.315Z,72.00
2023-03-02T16:56:29.655Z,74.00
2023-03-02T16:58:58.826Z,76.00
2023-03-02T17:01:28.290Z,78.80
2023-03-02T17:03:56.427Z,79.60
2023-03-02T17:06:24.704Z,81.60
2023-03-02T17:08:52.546Z,83.30
2023-03-02T17:11:20.222Z,85.50
2023-03-02T17:13:47.538Z,87.90
2023-03-02T17:16:16.877Z,90.20
2023-03-02T17:18:47.202Z,91.20
2023-03-02T17:21:16.691Z,92.60
2023-03-02T17:23:44.650Z,93.80
2023-03-02T17:26:11.835Z,95.50
2023-03-02T17:28:39.429Z,96.80
2023-03-02T17:31:07.124Z,98.00
2023-03-02T17:33:34.956Z,99.10
2023-03-02T17:36:07.522Z,99.90
2023-03-02T17:38:34.837Z,99.90
2023-03-02T17:41:04.072Z,99.90
2023-03-02T17:43:37.541Z,99.90
2023-03-02T17:46:20.556Z,99.90
2023-03-02T17:48:54.207Z,99.90
2023-03-02T17:51:22.824Z,99.90
2023-03-02T17:53:51.551Z,99.90
2023-03-02T17:56:22.138Z,99.90
2023-03-02T17:58:57.877Z,99.90
2023-03-02T18:01:25.840Z,99.90
2023-03-02T18:03:53.161Z,99.90
2023-03-02T18:06:20.877Z,99.90
2023-03-02T18:08:50.200Z,99.90
2023-03-02T18:11:19.755Z,99.90
2023-03-02T18:13:47.542Z,99.90
2023-03-02T18:16:15.008Z,99.90
2023-03-02T18:18:42.353Z,99.90
2023-03-02T18:21:09.598Z,99.90
2023-03-02T18:23:36.900Z,99.90
2023-03-02T18:26:04.273Z,99.90
2023-03-02T18:28:32.056Z,99.90
2023-03-02T18:31:00.184Z,99.90
2023-03-02T18:33:27.558Z,99.90
2023-03-02T18:35:54.860Z,99.90
2023-03-02T18:38:22.301Z,99.90
2023-03-02T18:40:49.530Z,99.90
2023-03-02T18:43:17.298Z,99.90
2023-03-02T18:45:46.151Z,99.90
2023-03-02T18:48:14.665Z,99.90
2023-03-02T18:50:42.562Z,99.90
2023-03-02T18:53:12.710Z,99.90
2023-03-02T18:55:43.331Z,99.90
2023-03-02T18:58:20.161Z,99.90
2023-03-02T19:00:48.177Z,99.90
2023-03-02T19:03:17.381Z,99.90
2023-03-02T19:05:45.787Z,99.90
2023-03-02T19:08:13.091Z,99.90
2023-03-02T19:10:42.478Z,99.90
2023-03-02T19:13:11.727Z,99.90
2023-03-02T19:15:40.501Z,99.90
2023-03-02T19:18:09.492Z,99.90
2023-03-02T19:20:36.845Z,99.90
2023-03-02T19:23:04.159Z,99.90
2023-03-02T19:25:31.550Z,99.90
2023-03-02T19:27:58.885Z,99.90
2023-03-02T19:30:27.420Z,99.90
2023-03-02T19:32:55.147Z,99.90
2023-03-02T19:35:25.677Z,99.90
2023-03-02T19:37:53.137Z,99.90
2023-03-02T19:40:24.819Z,99.90
2023-03-02T19:42:53.047Z,99.90
2023-03-02T19:45:29.329Z,99.90
2023-03-02T19:47:58.001Z,99.90
2023-03-02T19:50:26.918Z,99.90
2023-03-02T19:52:55.292Z,99.90
2023-03-02T19:55:24.428Z,99.90
2023-03-02T19:57:59.878Z,99.90
2023-03-02T20:00:29.540Z,99.90
2023-03-02T20:02:58.064Z,99.90
2023-03-02T20:05:27.707Z,99.90
2023-03-02T20:07:55.653Z,99.90
2023-03-02T20:10:44.089Z,99.90
2023-03-02T20:13:12.519Z,99.90
2023-03-02T20:15:42.205Z,99.90
2023-03-02T20:18:16.613Z,99.90
2023-03-02T20:20:45.666Z,99.90
2023-03-02T20:23:14.327Z,99.90
2023-03-02T20:25:42.016Z,99.90
2023-03-02T20:28:12.234Z,99.90
2023-03-02T20:30:44.109Z,99.90
2023-03-02T20:33:12.787Z,99.90
2023-03-02T20:35:43.992Z,99.90
2023-03-02T20:38:19.601Z,99.90
2023-03-02T20:40:47.233Z,99.90
2023-03-02T20:43:14.891Z,99.90
2023-03-02T20:45:43.094Z,99.90
2023-03-02T20:48:10.509Z,99.90
2023-03-02T20:50:38.534Z,99.90
2023-03-02T20:53:07.434Z,99.90
2023-03-02T20:55:35.609Z,99.90
2023-03-02T20:58:05.500Z,99.90
2023-03-02T21:00:34.387Z,99.90
2023-03-02T21:03:01.810Z,99.90
2023-03-02T21:05:30.504Z,99.90
2023-03-02T21:07:58.660Z,99.90
2023-03-02T21:10:32.976Z,99.90
2023-03-02T21:13:00.467Z,99.90
2023-03-02T21:15:28.313Z,99.90
2023-03-02T21:17:56.019Z,99.90
2023-03-02T21:20:29.839Z,99.90
2023-03-02T21:22:57.144Z,99.90
2023-03-02T21:25:24.606Z,99.90
2023-03-02T21:27:51.971Z,99.90
2023-03-02T21:30:25.258Z,99.90
2023-03-02T21:32:52.499Z,99.90
2023-03-02T21:35:23.317Z,99.90
2023-03-02T21:37:52.610Z,99.90
2023-03-02T21:40:24.485Z,99.90
2023-03-02T21:42:52.410Z,99.90
2023-03-02T21:45:20.698Z,99.90
2023-03-02T21:47:48.077Z,99.90
2023-03-02T21:50:22.714Z,99.90
2023-03-02T21:52:50.073Z,99.90
2023-03-02T21:55:17.638Z,99.90
2023-03-02T21:57:45.316Z,99.90
2023-03-02T22:00:25.734Z,99.90
2023-03-02T22:02:53.186Z,99.90
2023-03-02T22:05:20.902Z,99.90
2023-03-02T22:07:48.696Z,99.90
2023-03-02T22:10:43.824Z,99.90
2023-03-02T22:13:24.282Z,99.90
2023-03-02T22:16:11.531Z,99.90
2023-03-02T22:18:39.433Z,99.90
2023-03-02T22:21:33.535Z,99.90
2023-03-02T22:24:10.616Z,99.90
2023-03-02T22:26:44.994Z,99.90
2023-03-02T22:29:22.538Z,99.90
2023-03-02T22:31:53.257Z,99.90
2023-03-02T22:34:29.642Z,99.90
2023-03-02T22:37:00.264Z,99.90
2023-03-02T22:39:30.760Z,99.90
2023-03-02T22:42:09.887Z,99.90
2023-03-02T22:44:37.219Z,99.90
2023-03-02T22:47:16.742Z,99.90
2023-03-02T22:49:44.708Z,99.90
2023-03-02T22:52:19.811Z,99.90
2023-03-02T22:54:47.289Z,99.90
2023-03-02T22:57:35.960Z,99.90
2023-03-02T23:00:14.206Z,99.90
2023-03-02T23:02:44.644Z,99.90
2023-03-02T23:05:34.800Z,99.90
2023-03-02T23:08:20.420Z,99.90
2023-03-02T23:10:48.545Z,99.90
2023-03-02T23:13:19.205Z,99.90
2023-03-02T23:15:47.732Z,99.90
2023-03-02T23:18:26.866Z,99.90
2023-03-02T23:20:55.138Z,99.90
2023-03-02T23:23:24.662Z,99.90
2023-03-02T23:25:52.158Z,99.90
2023-03-02T23:28:19.407Z,99.90
2023-03-02T23:30:47.836Z,99.90
2023-03-02T23:33:15.027Z,99.90
2023-03-02T23:35:42.358Z,99.90
2023-03-02T23:38:09.842Z,99.90
2023-03-02T23:40:37.219Z,99.90
2023-03-02T23:43:04.491Z,99.90
2023-03-02T23:45:31.870Z,99.90
2023-03-02T23:47:59.259Z,99.90
2023-03-02T23:50:26.609Z,99.90
2023-03-02T23:52:54.523Z,99.90
2023-03-02T23:55:30.518Z,99.90
2023-03-02T23:57:58.036Z,99.90
